• Join FlightAware (Why Join?)
  • Login
  • US Flag 
08:57PM EDT


 

Airport Tracker/Info


-or-


 

Live Flight TrackerFlight Track Log ✈ LBQ792 ✈ 26-Apr-2013 ✈ KELM - KSYR

Flight Track Log - Related Links

Times and Time Zones

All times are in EDT time to prevent confusion due to time zone crossing. See the LBQ792 flight status page for this flight to view local times or setup timezone preferences in your user account.

Time Position Orientation Groundspeed Altitude Reporting Facility
EDT Latitude Longitude Course Direction KTS MPH feet Rate Location/Type
09:19PM 42.3781 -76.6977 30° Northeast  Level FlightAware Approximate
09:20PM 42.4165 -76.6671 30° Northeast  Level FlightAware Approximate
09:20PM 42.5561 -76.5303 31° Northeast 240 276 7,100  Level Boston Center
09:21PM 42.4548 -76.6365 30° Northeast  Level FlightAware Approximate
09:21PM 42.5839 -76.5125 25° Northeast 239 275 7,100  Level Boston Center
09:22PM 42.4932 -76.6059 31° Northeast  Level FlightAware Approximate
09:22PM 42.6397 -76.4653 32° Northeast 238 274 7,100  Level Boston Center
09:23PM 42.5316 -76.5752 31° Northeast  Level FlightAware Approximate
09:23PM 42.7061 -76.4161 29° Northeast 241 277 6,900  Level Boston Center
09:24PM 42.5699 -76.5444 31° Northeast  Level FlightAware Approximate
09:24PM 42.7703 -76.3692 28° Northeast 255 293 5,900  Level Boston Center
09:25PM 42.6082 -76.5137 31° Northeast  Level FlightAware Approximate
09:25PM 42.8242 -76.3131 37° Northeast 252 290 4,900  Level Boston Center
09:26PM 42.6466 -76.4828 31° Northeast  Level FlightAware Approximate
09:26PM 42.8642 -76.2392 54° Northeast 244 281 4,000  Level Boston Center
09:27PM 42.8997 -76.1761 52° Northeast 221 254 4,000  Level Boston Center
09:28PM 42.9331 -76.1158 53° Northeast 207 238 4,000  Level Boston Center
09:29PM 42.9822 -76.0789 29° Northeast 221 254 4,000 -540 Level Boston Center
09:30PM 43.0447 -76.0769 North 222 255 3,000 -1,200 Descending Boston Center
09:31PM 43.0925 -76.0797 358° North 133 153 1,600 -1,440 Descending Boston Center
09:33PM 43.1000 -76.1000 26° Northeast  Level FlightAware Approximate
09:40PM 43.1112 -76.1063 26° Northeast  Level Estimated
09:41PM 43.1112 -76.1063 26° Northeast  Level Estimated
09:42PM 43.1112 -76.1063 26° Northeast  Level Estimated
09:43PM 43.1112 -76.1063 26° Northeast  Level Estimated
09:44PM 43.1112 -76.1063 26° Northeast  Level Estimated